Time;durP1;ratioP1;P1;durP2;ratioP2;P2;SDS_P1;SDS_P2;PMS_P1;PMS_P2;Temp;Humidity;BMP_temperature;BMP_pressure;BME280_temperature;BME280_humidity;BME280_pressure;Samples;Min_cycle;Max_cycle;Signal;HPM_P1;HPM_P2
2022/12/16 00:01:31;;;;;;;68.50;27.67;;;;;;;-3.64;100.00;100685.88;4989575;28;20523;-78
2022/12/16 00:03:57;;;;;;;67.68;26.73;;;;;;;-3.60;100.00;100682.19;4998935;28;20054;-78
2022/12/16 00:06:25;;;;;;;58.05;25.10;;;;;;;-3.60;100.00;100676.84;4996317;28;20137;-77
2022/12/16 00:08:50;;;;;;;61.55;26.50;;;;;;;-3.59;100.00;100673.25;4997277;28;20038;-78
2022/12/16 00:11:16;;;;;;;77.75;26.88;;;;;;;-3.56;100.00;100666.94;4994062;28;20125;-78
2022/12/16 00:13:43;;;;;;;65.05;27.00;;;;;;;-3.49;100.00;100667.66;4995462;28;20035;-78
2022/12/16 00:16:12;;;;;;;53.75;23.85;;;;;;;-3.42;100.00;100685.34;4993218;28;20033;-78
2022/12/16 00:18:37;;;;;;;66.22;26.35;;;;;;;-3.45;100.00;100688.97;5002580;28;20031;-79
2022/12/16 00:21:04;;;;;;;63.30;26.42;;;;;;;-3.38;100.00;100692.38;5001257;28;20038;-78
2022/12/16 00:23:30;;;;;;;53.75;23.00;;;;;;;-3.29;100.00;100684.13;5001218;28;20042;-79
2022/12/16 00:25:56;;;;;;;58.70;25.13;;;;;;;-3.29;100.00;100676.09;4981585;28;20545;-77
2022/12/16 00:28:22;;;;;;;46.50;21.45;;;;;;;-3.30;100.00;100668.97;4981197;28;20065;-79
2022/12/16 00:30:52;;;;;;;52.92;23.75;;;;;;;-3.18;100.00;100678.47;4983384;28;20030;-78
2022/12/16 00:33:19;;;;;;;53.13;24.58;;;;;;;-3.23;100.00;100661.66;4968025;28;20050;-79
2022/12/16 00:35:45;;;;;;;54.45;23.88;;;;;;;-3.10;100.00;100686.34;4980451;28;20393;-77
2022/12/16 00:38:11;;;;;;;48.63;23.73;;;;;;;-3.14;100.00;100685.53;4998509;28;20046;-78
2022/12/16 00:40:36;;;;;;;60.55;25.42;;;;;;;-3.17;100.00;100688.28;4984399;28;20125;-78
2022/12/16 00:43:02;;;;;;;45.97;22.63;;;;;;;-3.14;100.00;100686.41;4997197;28;20041;-78
2022/12/16 00:45:30;;;;;;;49.33;21.70;;;;;;;-3.12;100.00;100680.16;5001354;28;20089;-78
2022/12/16 00:47:55;;;;;;;55.63;24.40;;;;;;;-3.12;100.00;100682.81;4965822;28;20054;-78
2022/12/16 00:50:21;;;;;;;61.47;23.95;;;;;;;-3.05;100.00;100687.09;4981851;28;20117;-79
2022/12/16 00:52:48;;;;;;;55.17;23.15;;;;;;;-3.06;100.00;100690.72;4981176;28;20035;-79
2022/12/16 00:55:15;;;;;;;58.72;24.30;;;;;;;-3.05;100.00;100684.41;4998501;28;20042;-78
2022/12/16 00:57:43;;;;;;;59.67;25.23;;;;;;;-3.05;100.00;100679.06;4981027;28;20090;-78
2022/12/16 01:00:11;;;;;;;59.95;25.27;;;;;;;-3.05;100.00;100682.63;4982006;28;20034;-79
2022/12/16 01:02:46;;;;;;;49.70;23.70;;;;;;;-3.01;100.00;100686.09;4964981;28;20027;-78
2022/12/16 01:05:14;;;;;;;59.08;25.73;;;;;;;-2.98;100.00;100688.72;4992252;28;20105;-77
2022/12/16 01:07:40;;;;;;;62.40;26.95;;;;;;;-3.06;100.00;100677.31;5000717;28;20117;-78
2022/12/16 01:10:09;;;;;;;66.82;27.38;;;;;;;-3.05;100.00;100679.97;4983230;28;20058;-78
2022/12/16 01:12:35;;;;;;;67.63;26.25;;;;;;;-3.00;100.00;100685.16;4982655;28;20374;-79
2022/12/16 01:15:04;;;;;;;59.83;26.80;;;;;;;-2.89;100.00;100690.25;4973975;28;20033;-77
2022/12/16 01:17:29;;;;;;;62.35;27.17;;;;;;;-2.93;100.00;100691.28;4996514;28;20346;-77
2022/12/16 01:19:55;;;;;;;62.55;27.33;;;;;;;-2.91;100.00;100706.38;4980650;28;20038;-78
2022/12/16 01:22:21;;;;;;;61.65;26.67;;;;;;;-2.91;100.00;100697.47;4977538;28;20070;-78
2022/12/16 01:24:48;;;;;;;66.30;28.10;;;;;;;-2.95;100.00;100699.34;4984285;28;20030;-78
2022/12/16 01:27:14;;;;;;;63.35;26.58;;;;;;;-2.92;100.00;100703.72;4997772;28;20086;-77
2022/12/16 01:29:40;;;;;;;57.83;25.95;;;;;;;-2.89;100.00;100699.16;4980451;28;20026;-78
2022/12/16 01:32:07;;;;;;;65.72;27.35;;;;;;;-2.86;100.00;100706.25;4995790;28;20034;-77
2022/12/16 01:34:34;;;;;;;63.10;25.58;;;;;;;-2.89;100.00;100712.56;4982819;28;20050;-78
2022/12/16 01:36:59;;;;;;;57.33;27.02;;;;;;;-2.92;100.00;100712.63;4966699;28;20508;-78
2022/12/16 01:39:26;;;;;;;55.50;26.80;;;;;;;-2.85;100.00;100716.94;4999295;28;20034;-78
2022/12/16 01:41:51;;;;;;;69.90;27.88;;;;;;;-2.84;100.00;100718.66;4998488;28;20695;-78
2022/12/16 01:44:23;;;;;;;66.45;26.10;;;;;;;-2.83;100.00;100723.13;4994360;28;20041;-78
2022/12/16 01:46:52;;;;;;;62.28;26.92;;;;;;;-2.90;100.00;100713.50;4966431;28;20038;-80
2022/12/16 01:49:33;;;;;;;56.17;27.00;;;;;;;-2.86;100.00;100716.97;4973746;28;20050;-78
2022/12/16 01:52:03;;;;;;;60.60;25.45;;;;;;;-2.85;100.00;100716.94;4980636;28;20046;-79
2022/12/16 01:54:42;;;;;;;56.17;25.50;;;;;;;-2.75;100.00;100725.59;4997827;28;20189;-79
2022/12/16 01:57:12;;;;;;;55.45;25.65;;;;;;;-2.74;100.00;100727.34;5000065;28;20034;-78
2022/12/16 01:59:43;;;;;;;53.60;26.00;;;;;;;-2.82;100.00;100721.31;5000312;28;20037;-78
2022/12/16 02:02:11;;;;;;;55.40;24.85;;;;;;;-2.82;100.00;100722.22;4982571;28;20042;-78
2022/12/16 02:05:19;;;;;;;53.35;24.50;;;;;;;-2.82;100.00;100724.88;4975783;28;20023;-78
2022/12/16 02:07:22;;;;;;;63.60;27.02;;;;;;;-2.79;100.00;100732.84;4982519;28;20042;-79
2022/12/16 02:09:48;;;;;;;59.35;26.20;;;;;;;-2.75;100.00;100733.66;4974035;28;20037;-78
2022/12/16 02:12:25;;;;;;;55.40;24.77;;;;;;;-2.78;100.00;100726.56;4996536;28;20362;-78
2022/12/16 02:15:13;;;;;;;63.47;27.10;;;;;;;-2.75;100.00;100724.72;4969920;28;20096;-78
2022/12/16 02:18:11;;;;;;;58.03;25.52;;;;;;;-2.70;100.00;100736.22;4999008;28;20488;-78
2022/12/16 02:20:48;;;;;;;56.53;26.15;;;;;;;-2.63;100.00;100730.63;4964553;28;20062;-78
2022/12/16 02:23:56;;;;;;;59.25;27.38;;;;;;;-2.59;100.00;100737.69;4997350;28;20163;-78
2022/12/16 02:27:02;;;;;;;58.50;24.95;;;;;;;-2.59;100.00;100735.00;4986099;28;20129;-78
2022/12/16 02:29:36;;;;;;;61.03;25.08;;;;;;;-2.55;100.00;100732.22;4978403;28;20382;-78
2022/12/16 02:32:15;;;;;;;60.03;26.35;;;;;;;-2.62;100.00;100729.72;4997087;28;20038;-77
2022/12/16 02:35:05;;;;;;;59.85;27.15;;;;;;;-2.57;100.00;100737.63;4997968;28;20054;-79
2022/12/16 02:37:40;;;;;;;57.35;25.80;;;;;;;-2.52;100.00;100749.09;4998983;28;20038;-78
2022/12/16 02:40:17;;;;;;;52.25;23.88;;;;;;;-2.49;100.00;100748.13;5001779;28;20045;-79
2022/12/16 02:43:09;;;;;;;61.47;26.95;;;;;;;-2.52;100.00;100753.59;4996858;28;20030;-78
2022/12/16 02:45:35;;;;;;;52.17;26.08;;;;;;;-2.54;100.00;100752.75;4996293;28;20042;-78
2022/12/16 02:48:01;;;;;;;54.35;26.02;;;;;;;-2.54;100.00;100745.59;4992917;28;20041;-78
2022/12/16 02:50:38;;;;;;;54.92;26.15;;;;;;;-2.51;100.00;100740.16;4954284;28;20038;-78
2022/12/16 02:53:06;;;;;;;63.25;26.95;;;;;;;-2.54;100.00;100747.38;4997417;28;20126;-77
2022/12/16 02:55:39;;;;;;;58.60;26.30;;;;;;;-2.51;100.00;100753.56;4992045;28;20081;-77
2022/12/16 02:58:09;;;;;;;61.38;27.65;;;;;;;-2.56;100.00;100760.81;4981283;28;20032;-78
2022/12/16 03:01:00;;;;;;;59.80;27.95;;;;;;;-2.70;100.00;100761.19;4989576;28;20034;-78
2022/12/16 03:03:39;;;;;;;60.10;27.48;;;;;;;-2.62;100.00;100767.22;4960397;28;20081;-78
2022/12/16 03:06:06;;;;;;;55.40;26.73;;;;;;;-2.63;100.00;100769.94;4998735;28;20034;-78
2022/12/16 03:08:37;;;;;;;60.70;27.80;;;;;;;-2.65;100.00;100767.31;4998552;28;20411;-78
2022/12/16 03:11:05;;;;;;;57.40;26.13;;;;;;;-2.62;100.00;100766.38;4990398;28;20030;-78
2022/12/16 03:13:40;;;;;;;59.33;26.90;;;;;;;-2.68;100.00;100758.47;4980757;28;20154;-78
2022/12/16 03:16:08;;;;;;;63.45;27.48;;;;;;;-2.71;100.00;100755.88;5011000;28;20504;-78
2022/12/16 03:18:38;;;;;;;64.57;29.10;;;;;;;-2.81;100.00;100749.88;4982786;28;20038;-78
2022/12/16 03:21:06;;;;;;;69.85;29.92;;;;;;;-2.71;100.00;100758.56;4998964;28;20461;-78
2022/12/16 03:23:41;;;;;;;69.90;28.30;;;;;;;-2.67;100.00;100757.53;4998683;28;20469;-78
2022/12/16 03:26:20;;;;;;;64.90;29.95;;;;;;;-2.66;100.00;100768.22;4996461;28;20045;-78
2022/12/16 03:28:59;;;;;;;65.88;29.80;;;;;;;-2.66;100.00;100775.38;4999938;28;20023;-77
2022/12/16 03:31:41;;;;;;;68.80;30.70;;;;;;;-2.68;100.00;100774.56;4963042;28;20043;-78
2022/12/16 03:34:15;;;;;;;64.70;28.63;;;;;;;-2.71;100.00;100777.31;4987581;28;20413;-79
2022/12/16 03:36:44;;;;;;;66.40;29.25;;;;;;;-2.63;100.00;100773.50;4995126;28;20050;-77
2022/12/16 03:39:13;;;;;;;82.57;31.65;;;;;;;-2.74;100.00;100790.78;4998331;28;20033;-78
2022/12/16 03:41:42;;;;;;;69.45;28.23;;;;;;;-2.78;100.00;100788.16;5000860;28;20141;-77
2022/12/16 03:44:08;;;;;;;72.72;30.00;;;;;;;-2.80;100.00;100786.47;4990098;28;20406;-78
2022/12/16 03:46:34;;;;;;;73.30;31.55;;;;;;;-2.83;100.00;100787.41;4948239;28;20073;-78
2022/12/16 03:49:00;;;;;;;78.70;32.38;;;;;;;-2.86;100.00;100791.97;4984316;28;20047;-77
2022/12/16 03:51:25;;;;;;;78.55;32.85;;;;;;;-2.91;100.00;100784.03;4985052;28;20044;-77
2022/12/16 03:53:51;;;;;;;74.03;32.83;;;;;;;-2.91;100.00;100784.03;4987702;28;20038;-77
2022/12/16 03:56:16;;;;;;;74.80;30.95;;;;;;;-2.91;100.00;100777.81;4990273;28;20129;-77
2022/12/16 03:58:42;;;;;;;72.68;31.67;;;;;;;-2.88;100.00;100785.78;4982328;28;20042;-77
2022/12/16 04:01:09;;;;;;;82.10;32.30;;;;;;;-2.92;100.00;100786.75;4954751;28;20034;-77
2022/12/16 04:03:36;;;;;;;79.55;31.15;;;;;;;-2.93;100.00;100787.69;4974819;28;20030;-77
2022/12/16 04:06:01;;;;;;;73.68;30.33;;;;;;;-3.01;100.00;100787.88;4990652;28;20038;-77
2022/12/16 04:08:30;;;;;;;70.07;30.65;;;;;;;-2.96;100.00;100788.63;4961861;28;20046;-77
2022/12/16 04:24:47;;;;;;;75.15;32.03;;;;;;;-2.89;100.00;100809.00;4990897;28;20062;-77
2022/12/16 04:27:24;;;;;;;77.15;31.35;;;;;;;-2.99;100.00;100811.00;4958562;28;20035;-77
